Time;durP1;ratioP1;P1;durP2;ratioP2;P2;SDS_P1;SDS_P2;PMS_P1;PMS_P2;Temp;Humidity;BMP_temperature;BMP_pressure;BME280_temperature;BME280_humidity;BME280_pressure;Samples;Min_cycle;Max_cycle;Signal;HPM_P1;HPM_P2
2021/08/31 00:02:19;;;;;;;;;13.75;13.75;;;;;20.34;50.98;101772.94;5062957;28;45310;-48
2021/08/31 00:04:45;;;;;;;;;17.50;14.25;;;;;20.34;50.67;101783.59;5069839;28;45225;-47
2021/08/31 00:07:10;;;;;;;;;15.50;14.75;;;;;20.34;51.10;101772.94;5083025;28;46086;-46
2021/08/31 00:09:35;;;;;;;;;16.75;14.25;;;;;20.33;51.12;101789.00;5061565;28;45284;-48
2021/08/31 00:12:01;;;;;;;;;15.50;14.00;;;;;20.33;50.68;101779.19;5075995;28;45395;-48
2021/08/31 00:14:26;;;;;;;;;15.25;15.25;;;;;20.33;50.56;101787.19;5081783;28;45412;-48
2021/08/31 00:16:52;;;;;;;;;12.50;9.50;;;;;20.33;50.73;101786.34;5083018;28;45353;-48
2021/08/31 00:19:17;;;;;;;;;18.50;17.75;;;;;20.30;50.49;101776.63;5082590;28;45235;-48
2021/08/31 00:21:44;;;;;;;;;18.50;15.00;;;;;20.32;51.13;101788.13;5082799;28;45260;-47
2021/08/31 00:24:09;;;;;;;;;19.25;15.50;;;;;20.32;50.77;101784.59;5082860;28;45481;-47
2021/08/31 00:26:34;;;;;;;;;16.50;15.25;;;;;20.32;51.15;101785.47;5082753;28;45358;-46
2021/08/31 00:29:00;;;;;;;;;19.00;17.25;;;;;20.32;50.65;101780.13;5082614;28;45435;-46
2021/08/31 00:31:25;;;;;;;;;17.75;15.00;;;;;20.32;50.59;101781.94;5083087;28;45237;-49
2021/08/31 00:33:50;;;;;;;;;16.25;14.50;;;;;20.29;51.01;101780.25;5082283;28;45272;-49
2021/08/31 00:36:16;;;;;;;;;19.75;16.25;;;;;20.32;51.06;101782.78;5082901;28;45418;-45
2021/08/31 00:38:41;;;;;;;;;19.50;16.75;;;;;20.32;50.84;101777.44;5070333;28;45267;-48
2021/08/31 00:41:07;;;;;;;;;17.25;14.50;;;;;20.32;51.05;101780.13;5075961;28;45240;-46
2021/08/31 00:43:48;;;;;;;;;18.00;17.50;;;;;20.29;50.58;101781.09;5062271;28;45450;-46
2021/08/31 00:46:18;;;;;;;;;17.00;14.00;;;;;20.28;51.14;101778.50;5064225;28;45466;-46
2021/08/31 00:48:44;;;;;;;;;19.50;17.00;;;;;20.28;51.24;101781.19;5060536;28;45509;-46
2021/08/31 00:51:11;;;;;;;;;18.25;16.25;;;;;20.28;51.15;101783.84;5081107;27;45280;-47
2021/08/31 00:53:37;;;;;;;;;20.50;17.00;;;;;20.24;51.13;101779.56;5080855;28;46083;-50
2021/08/31 00:56:05;;;;;;;;;19.00;13.75;;;;;20.26;50.49;101781.25;5082234;27;45983;-45
2021/08/31 00:58:33;;;;;;;;;18.00;15.25;;;;;20.24;50.66;101774.22;5081931;28;45378;-47
2021/08/31 01:00:59;;;;;;;;;18.50;15.00;;;;;20.24;50.65;101769.75;5082531;28;45402;-48
2021/08/31 01:03:26;;;;;;;;;16.25;14.50;;;;;20.19;50.85;101768.16;5081778;28;45438;-48
2021/08/31 01:05:51;;;;;;;;;14.25;14.25;;;;;20.21;50.89;101774.31;5082258;28;45436;-50
2021/08/31 01:08:17;;;;;;;;;18.00;18.00;;;;;20.17;51.28;101772.72;5081978;28;45244;-47
2021/08/31 01:10:43;;;;;;;;;14.75;14.25;;;;;20.17;50.79;101784.25;5082317;28;45303;-49
2021/08/31 01:13:08;;;;;;;;;17.50;17.00;;;;;20.16;51.28;101785.16;5081854;28;45453;-49
2021/08/31 01:15:34;;;;;;;;;16.50;16.50;;;;;20.13;50.92;101783.47;5082068;28;45968;-49
2021/08/31 01:18:22;;;;;;;;;16.75;15.25;;;;;20.14;51.36;101784.38;5081581;28;45319;-49
2021/08/31 01:20:49;;;;;;;;;19.75;18.25;;;;;20.14;50.88;101793.25;5082067;28;45313;-45
2021/08/31 01:23:15;;;;;;;;;18.75;16.25;;;;;20.13;51.05;101775.47;5081812;28;45304;-49
2021/08/31 01:25:42;;;;;;;;;19.25;18.00;;;;;20.13;51.41;101779.97;5081782;28;45953;-49
2021/08/31 01:28:07;;;;;;;;;15.00;14.50;;;;;20.12;51.22;101784.44;5081627;28;45345;-47
2021/08/31 01:30:33;;;;;;;;;17.50;15.75;;;;;20.07;50.75;101777.53;5081932;28;45434;-48
2021/08/31 01:33:00;;;;;;;;;13.50;13.50;;;;;20.08;50.95;101782.78;5081419;28;45302;-48
2021/08/31 01:35:25;;;;;;;;;18.50;17.75;;;;;20.06;51.81;101782.00;5081915;27;46151;-47
2021/08/31 01:37:50;;;;;;;;;14.25;13.75;;;;;20.03;51.52;101778.56;5077798;28;45305;-46
2021/08/31 01:40:16;;;;;;;;;20.00;14.75;;;;;20.03;51.00;101773.25;5072589;28;45690;-49
2021/08/31 01:42:41;;;;;;;;;20.75;17.50;;;;;20.02;51.11;101782.16;5081443;27;45235;-48
2021/08/31 01:45:07;;;;;;;;;16.75;14.50;;;;;20.01;51.06;101785.75;5080226;28;45366;-48
2021/08/31 01:47:32;;;;;;;;;12.75;11.25;;;;;19.98;51.39;101778.75;5081233;28;45242;-46
2021/08/31 01:49:57;;;;;;;;;12.50;12.50;;;;;19.98;51.58;101789.41;5081408;28;45385;-45
2021/08/31 01:52:23;;;;;;;;;14.00;11.50;;;;;19.96;51.19;101783.25;5077041;28;46095;-49
2021/08/31 01:54:48;;;;;;;;;12.75;11.50;;;;;19.96;51.63;101788.59;5061222;28;46325;-46
2021/08/31 01:57:13;;;;;;;;;11.25;10.75;;;;;19.95;51.17;101784.19;5060750;28;45311;-47
2021/08/31 01:59:39;;;;;;;;;13.00;9.50;;;;;19.94;51.04;101782.47;5061046;28;45261;-46
2021/08/31 02:02:04;;;;;;;;;15.75;12.25;;;;;19.92;51.24;101794.97;5060052;28;45235;-47
2021/08/31 02:04:32;;;;;;;;;15.25;11.75;;;;;19.86;51.19;101777.41;5071609;28;47230;-48
2021/08/31 02:06:59;;;;;;;;;12.25;10.25;;;;;19.89;51.56;101793.28;5064540;27;45350;-48
2021/08/31 02:09:24;;;;;;;;;12.75;10.50;;;;;19.89;51.54;101795.09;5070135;28;45362;-47
2021/08/31 02:11:49;;;;;;;;;12.25;9.50;;;;;19.87;51.16;101802.28;5076475;28;45374;-50
2021/08/31 02:14:15;;;;;;;;;11.75;11.00;;;;;19.85;51.66;101793.44;5081065;28;46267;-56
2021/08/31 02:16:40;;;;;;;;;12.00;9.25;;;;;19.83;51.71;101795.31;5080717;28;45344;-50
2021/08/31 02:19:05;;;;;;;;;11.75;10.25;;;;;19.82;51.31;101799.72;5080716;28;45308;-49
2021/08/31 02:21:31;;;;;;;;;9.00;8.75;;;;;19.79;51.72;101798.03;5080796;28;45381;-49
2021/08/31 02:23:56;;;;;;;;;10.00;10.00;;;;;19.77;51.29;101788.34;5080659;28;46194;-49
2021/08/31 02:26:21;;;;;;;;;11.50;10.50;;;;;19.77;51.84;101796.38;5065612;28;45323;-46
2021/08/31 02:28:47;;;;;;;;;11.75;9.00;;;;;19.74;51.42;101785.81;5070111;28;45360;-48
2021/08/31 02:31:12;;;;;;;;;10.75;9.00;;;;;19.74;51.63;101792.00;5076349;28;45507;-47
2021/08/31 02:33:37;;;;;;;;;12.50;9.00;;;;;19.73;51.35;101784.06;5079575;28;45445;-48
2021/08/31 02:36:03;;;;;;;;;11.50;10.75;;;;;19.72;51.47;101795.66;5078394;28;45489;-49
2021/08/31 02:38:28;;;;;;;;;9.75;9.25;;;;;19.71;51.37;101793.91;5072066;28;45260;-47
2021/08/31 02:40:53;;;;;;;;;12.25;10.00;;;;;19.70;51.73;101798.38;5076748;28;45426;-46
2021/08/31 02:43:19;;;;;;;;;10.25;9.75;;;;;19.69;51.58;101788.63;5080622;28;47015;-49
2021/08/31 02:45:44;;;;;;;;;11.50;10.25;;;;;19.69;51.55;101796.63;5080432;28;45275;-46
2021/08/31 02:48:09;;;;;;;;;10.75;9.25;;;;;19.67;51.84;101793.16;5080646;28;45232;-46
2021/08/31 02:50:35;;;;;;;;;9.00;9.00;;;;;19.67;51.85;101793.16;5069967;28;45268;-49
2021/08/31 02:53:00;;;;;;;;;9.50;9.50;;;;;19.68;51.60;101788.72;5060275;28;45853;-45
2021/08/31 02:55:26;;;;;;;;;10.50;9.50;;;;;19.66;51.42;101788.75;5060172;28;45213;-48
2021/08/31 02:57:51;;;;;;;;;12.00;9.75;;;;;19.66;51.79;101783.44;5060257;28;45769;-47
2021/08/31 03:00:19;;;;;;;;;12.25;12.25;;;;;19.64;51.93;101788.81;5060014;28;45390;-48
2021/08/31 03:02:46;;;;;;;;;12.25;10.50;;;;;19.63;51.63;101783.53;5059908;28;46312;-46
2021/08/31 03:05:12;;;;;;;;;11.00;10.25;;;;;19.62;51.99;101785.34;5058714;28;45356;-49
2021/08/31 03:07:38;;;;;;;;;11.00;9.50;;;;;19.60;51.78;101780.97;5060231;28;45272;-47
2021/08/31 03:10:04;;;;;;;;;11.25;10.50;;;;;19.59;51.60;101781.91;5059992;28;45208;-49
2021/08/31 03:12:29;;;;;;;;;13.75;9.50;;;;;19.56;52.06;101784.66;5059937;28;45267;-48
2021/08/31 03:14:54;;;;;;;;;13.00;11.00;;;;;19.56;51.96;101779.34;5059771;28;45319;-47
2021/08/31 03:17:20;;;;;;;;;8.00;8.00;;;;;19.51;52.03;101778.63;5065113;28;45365;-46
2021/08/31 03:19:45;;;;;;;;;14.00;11.50;;;;;19.51;51.54;101773.28;5059808;28;45512;-47
2021/08/31 03:22:11;;;;;;;;;12.75;11.75;;;;;19.52;51.79;101788.38;5059764;28;45417;-49
2021/08/31 03:24:37;;;;;;;;;14.00;11.75;;;;;19.51;52.03;101786.63;5059718;28;45351;-46
2021/08/31 03:27:04;;;;;;;;;13.00;11.75;;;;;19.47;51.54;101786.75;5060006;28;45447;-47
2021/08/31 03:29:29;;;;;;;;;10.75;9.50;;;;;19.48;51.72;101792.94;5059729;28;45410;-51
2021/08/31 03:31:55;;;;;;;;;14.00;13.00;;;;;19.47;51.80;101797.41;5059327;28;45466;-49
2021/08/31 03:34:20;;;;;;;;;14.75;12.00;;;;;19.47;51.74;101802.75;5059590;28;45252;-45
2021/08/31 03:36:46;;;;;;;;;16.00;11.75;;;;;19.47;51.68;101796.53;5064620;28;45707;-48
2021/08/31 03:39:11;;;;;;;;;14.50;11.50;;;;;19.48;52.04;101800.94;5060299;28;45336;-46
2021/08/31 03:41:36;;;;;;;;;14.75;11.00;;;;;19.47;51.87;101799.19;5069735;28;48113;-48
2021/08/31 03:44:04;;;;;;;;;12.75;11.25;;;;;19.48;51.75;101795.59;5074969;28;45374;-48
2021/08/31 03:46:30;;;;;;;;;14.25;14.25;;;;;19.48;51.83;101803.59;5070126;28;45265;-48
2021/08/31 03:48:55;;;;;;;;;15.00;8.50;;;;;19.47;51.71;101799.19;5074710;28;45291;-48
2021/08/31 03:51:20;;;;;;;;;13.25;10.00;;;;;19.49;51.80;101797.34;5071243;28;46204;-48
2021/08/31 03:53:46;;;;;;;;;17.50;11.75;;;;;19.49;52.14;101798.19;5059531;28;45209;-50
2021/08/31 03:56:11;;;;;;;;;13.25;11.00;;;;;19.50;52.10;101796.44;5059966;28;45577;-49
2021/08/31 03:58:36;;;;;;;;;13.25;11.00;;;;;19.49;52.19;101800.88;5059127;28;45395;-47
2021/08/31 04:01:02;;;;;;;;;14.75;11.50;;;;;19.49;51.75;101800.88;5059329;28;46054;-45
2021/08/31 04:03:27;;;;;;;;;14.50;11.75;;;;;19.50;51.89;101801.75;5059156;28;45361;-48
2021/08/31 04:05:52;;;;;;;;;16.25;13.50;;;;;19.50;51.78;101812.41;5059730;28;45409;-48
2021/08/31 04:08:18;;;;;;;;;17.75;14.50;;;;;19.50;51.85;101804.44;5059280;28;45446;-46
2021/08/31 04:10:43;;;;;;;;;14.25;13.25;;;;;19.52;52.24;101804.38;5059338;28;45283;-46
2021/08/31 04:13:11;;;;;;;;;15.50;13.75;;;;;19.51;52.20;101813.28;5059221;28;45501;-45
2021/08/31 04:15:36;;;;;;;;;13.50;13.50;;;;;19.50;51.83;101807.09;5059439;28;45346;-46
2021/08/31 04:18:02;;;;;;;;;15.50;13.25;;;;;19.51;52.16;101803.50;5058807;28;45252;-47
2021/08/31 04:20:28;;;;;;;;;11.50;11.00;;;;;19.52;52.37;101812.38;5059146;28;46445;-48
2021/08/31 04:22:53;;;;;;;;;16.75;14.25;;;;;19.50;52.18;101809.75;5058867;28;45494;-48
2021/08/31 04:25:18;;;;;;;;;16.00;15.75;;;;;19.51;51.93;101819.50;5062681;28;45243;-49
2021/08/31 04:27:44;;;;;;;;;16.75;14.00;;;;;19.50;52.24;101817.75;5062307;28;45331;-50
2021/08/31 04:30:10;;;;;;;;;21.00;16.25;;;;;19.51;52.28;101823.94;5062513;28;46273;-50
2021/08/31 04:32:35;;;;;;;;;18.00;15.25;;;;;19.52;51.78;101825.69;5062223;28;45238;-48
2021/08/31 04:35:03;;;;;;;;;15.25;14.00;;;;;19.53;52.27;101827.44;5062579;28;45772;-48
2021/08/31 04:37:30;;;;;;;;;14.50;12.50;;;;;19.55;52.50;101828.25;5062222;28;45387;-47
2021/08/31 04:39:55;;;;;;;;;16.25;14.75;;;;;19.54;52.01;101826.53;5070496;28;45335;-51
2021/08/31 04:42:20;;;;;;;;;21.25;18.25;;;;;19.55;52.06;101825.59;5082427;27;45560;-49
2021/08/31 04:44:46;;;;;;;;;26.50;24.50;;;;;19.56;52.07;101828.22;5082877;28;45450;-47
2021/08/31 04:47:11;;;;;;;;;18.50;16.00;;;;;19.56;52.16;101825.53;5082557;28;45303;-49
2021/08/31 04:49:36;;;;;;;;;15.50;15.00;;;;;19.57;51.88;101821.06;5074470;28;46445;-48
2021/08/31 04:52:02;;;;;;;;;20.25;16.25;;;;;19.58;51.88;101828.16;5067452;27;45279;-50
2021/08/31 04:54:27;;;;;;;;;14.50;14.00;;;;;19.57;52.34;101829.94;5062351;28;45212;-48
2021/08/31 04:56:52;;;;;;;;;14.50;14.25;;;;;19.58;52.28;101831.66;5061989;28;45415;-50
2021/08/31 04:59:19;;;;;;;;;19.25;16.75;;;;;19.58;52.02;101834.34;5061960;28;46455;-48
2021/08/31 05:01:44;;;;;;;;;12.50;11.25;;;;;19.58;52.23;101833.47;5061813;28;45266;-47
2021/08/31 05:04:09;;;;;;;;;21.00;18.00;;;;;19.59;52.06;101837.88;5062018;28;45232;-50
2021/08/31 05:06:35;;;;;;;;;19.75;15.25;;;;;19.58;52.11;101839.66;5061849;28;45261;-47
2021/08/31 05:09:00;;;;;;;;;16.25;12.50;;;;;19.59;51.87;101843.22;5062038;28;45300;-49
2021/08/31 05:11:25;;;;;;;;;18.75;18.25;;;;;19.59;51.90;101843.22;5061657;28;45287;-49
2021/08/31 05:13:51;;;;;;;;;18.00;16.50;;;;;19.59;52.12;101838.75;5062065;28;45257;-47
2021/08/31 05:16:18;;;;;;;;;20.00;17.50;;;;;19.57;52.36;101837.06;5061710;28;45473;-46
2021/08/31 05:18:44;;;;;;;;;19.25;17.00;;;;;19.60;52.52;101839.63;5061532;28;46261;-50
2021/08/31 05:21:09;;;;;;;;;18.25;16.75;;;;;19.59;51.91;101838.75;5061473;28;45333;-49
2021/08/31 05:23:35;;;;;;;;;30.75;27.25;;;;;19.58;52.53;101836.13;5061705;28;45334;-48
2021/08/31 05:26:01;;;;;;;;;27.25;23.00;;;;;19.61;52.42;101842.25;5061585;28;45395;-49
2021/08/31 05:28:26;;;;;;;;;19.25;18.00;;;;;19.60;52.41;101837.81;5061580;28;45901;-46
2021/08/31 05:30:52;;;;;;;;;19.00;17.75;;;;;19.61;51.96;101841.38;5060118;28;45862;-49
2021/08/31 05:33:17;;;;;;;;;22.50;18.75;;;;;19.61;51.84;101847.56;5061578;28;45636;-46
2021/08/31 05:35:42;;;;;;;;;23.75;17.00;;;;;19.61;51.96;101846.72;5068141;28;45453;-47
2021/08/31 05:38:08;;;;;;;;;18.00;17.00;;;;;19.61;52.38;101844.91;5069610;28;45267;-49
2021/08/31 05:40:33;;;;;;;;;19.00;16.50;;;;;19.62;52.52;101832.44;5074111;28;45217;-50
2021/08/31 05:42:58;;;;;;;;;22.25;17.75;;;;;19.63;52.48;101851.06;5060123;28;45339;-50
2021/08/31 05:45:24;;;;;;;;;21.75;18.75;;;;;19.62;52.04;101843.09;5061218;28;45212;-49
2021/08/31 05:47:49;;;;;;;;;21.00;17.00;;;;;19.63;52.07;101848.41;5060869;28;46412;-50
2021/08/31 05:50:15;;;;;;;;;18.50;17.75;;;;;19.61;52.08;101847.56;5067609;28;45169;-48
2021/08/31 05:52:40;;;;;;;;;18.75;17.00;;;;;19.63;52.02;101848.41;5076809;28;45183;-51
2021/08/31 05:55:06;;;;;;;;;19.25;17.25;;;;;19.64;52.18;101859.94;5069718;28;45635;-46
2021/08/31 05:57:32;;;;;;;;;20.00;18.00;;;;;19.63;52.06;101864.41;5060579;28;46648;-50
2021/08/31 05:59:57;;;;;;;;;25.00;20.25;;;;;19.63;52.17;101861.75;5060709;28;45462;-49
2021/08/31 06:02:22;;;;;;;;;17.75;14.25;;;;;19.64;52.54;101862.59;5060656;28;45382;-46
2021/08/31 06:04:48;;;;;;;;;20.00;17.00;;;;;19.64;52.21;101855.44;5060811;28;45335;-47
2021/08/31 06:07:13;;;;;;;;;21.50;20.25;;;;;19.65;52.52;101859.88;5058758;28;45410;-46
2021/08/31 06:09:41;;;;;;;;;17.25;17.25;;;;;19.67;52.07;101862.47;5059062;28;45459;-49
2021/08/31 06:12:12;;;;;;;;;22.25;19.00;;;;;19.69;52.03;101870.44;5059327;28;45383;-48
2021/08/31 06:14:38;;;;;;;;;17.25;17.25;;;;;19.68;52.88;101864.22;5059326;28;46529;-51
2021/08/31 06:17:05;;;;;;;;;20.50;19.75;;;;;19.71;52.38;101871.25;5060438;28;46283;-47
2021/08/31 06:19:30;;;;;;;;;23.75;21.50;;;;;19.68;52.36;101866.88;5073428;28;45390;-52
2021/08/31 06:21:57;;;;;;;;;24.50;19.25;;;;;19.72;52.79;101875.66;5080747;28;45303;-53
2021/08/31 06:24:22;;;;;;;;;23.25;19.00;;;;;19.74;52.62;101879.16;5080911;28;45231;-52
2021/08/31 06:26:47;;;;;;;;;23.25;20.00;;;;;19.75;52.28;101873.75;5080742;28;45231;-53
2021/08/31 06:29:13;;;;;;;;;23.50;19.00;;;;;19.78;52.71;101875.44;5080873;28;45283;-53
2021/08/31 06:31:38;;;;;;;;;24.00;20.25;;;;;19.79;52.70;101878.03;5081114;28;45392;-49
2021/08/31 06:34:03;;;;;;;;;22.25;19.50;;;;;19.82;52.31;101879.72;5048907;28;45902;-52
2021/08/31 06:36:29;;;;;;;;;21.75;21.75;;;;;19.86;52.38;101877.88;5079518;28;48375;-53
2021/08/31 06:38:54;;;;;;;;;26.50;23.50;;;;;19.87;52.30;101875.13;5067958;28;45220;-51
2021/08/31 06:41:19;;;;;;;;;23.75;21.75;;;;;19.89;52.28;101880.44;5080564;28;45166;-52
2021/08/31 06:43:46;;;;;;;;;24.50;20.50;;;;;19.92;52.68;101880.31;5080535;28;45259;-52
2021/08/31 06:46:14;;;;;;;;;23.25;21.00;;;;;19.92;52.92;101872.31;5078921;28;47372;-52
2021/08/31 06:48:42;;;;;;;;;22.50;20.00;;;;;19.96;52.23;101873.94;5075143;27;45349;-53
2021/08/31 06:51:07;;;;;;;;;23.75;21.75;;;;;20.00;52.87;101870.25;5070506;28;45272;-52
2021/08/31 06:53:33;;;;;;;;;21.00;18.00;;;;;20.02;52.82;101880.88;5075641;27;45251;-52
2021/08/31 06:55:58;;;;;;;;;23.75;20.75;;;;;20.04;52.32;101882.56;5062947;28;45322;-52
2021/08/31 06:58:23;;;;;;;;;21.75;20.00;;;;;20.06;52.79;101880.72;5060818;28;45232;-53
2021/08/31 07:00:49;;;;;;;;;21.00;18.25;;;;;20.09;52.30;101880.59;5073022;28;45256;-52
2021/08/31 07:03:14;;;;;;;;;25.75;22.00;;;;;20.10;52.38;101884.13;5072150;28;45273;-51
2021/08/31 07:05:39;;;;;;;;;29.50;22.75;;;;;20.13;52.57;101881.34;5071344;28;45250;-50
2021/08/31 07:08:05;;;;;;;;;23.00;19.75;;;;;20.14;52.16;101878.63;5076409;28;45471;-50
2021/08/31 07:10:30;;;;;;;;;21.25;20.50;;;;;20.16;52.81;101886.56;5060079;28;45211;-52
2021/08/31 07:12:56;;;;;;;;;24.50;22.75;;;;;20.19;52.46;101885.56;5071866;28;45273;-51
2021/08/31 07:15:21;;;;;;;;;24.00;20.00;;;;;20.21;52.73;101887.25;5069860;28;45998;-52
2021/08/31 07:17:47;;;;;;;;;26.75;23.00;;;;;20.23;52.92;101885.41;5066104;28;45365;-50
2021/08/31 07:20:12;;;;;;;;;25.50;24.25;;;;;20.26;52.28;101884.44;5069646;27;45296;-51
2021/08/31 07:22:38;;;;;;;;;23.50;20.75;;;;;20.28;52.75;101886.13;5083908;27;45414;-49
2021/08/31 07:25:04;;;;;;;;;30.25;25.75;;;;;20.32;52.38;101892.22;5070130;28;46107;-53
2021/08/31 07:27:29;;;;;;;;;25.00;24.50;;;;;20.35;52.39;101892.13;5066236;28;45345;-53
2021/08/31 07:29:54;;;;;;;;;25.50;24.25;;;;;20.37;52.74;101882.25;5069264;27;45405;-51
2021/08/31 07:32:20;;;;;;;;;23.75;21.50;;;;;20.41;52.86;101889.19;5072750;28;45365;-52
2021/08/31 07:34:45;;;;;;;;;26.75;23.00;;;;;20.44;52.94;101883.75;5059405;28;45346;-49
2021/08/31 07:37:11;;;;;;;;;20.50;18.50;;;;;20.47;52.83;101885.44;5065830;28;45797;-53
2021/08/31 07:39:36;;;;;;;;;24.75;21.75;;;;;20.51;52.51;101888.88;5060943;28;45467;-53
2021/08/31 07:42:02;;;;;;;;;23.50;21.00;;;;;20.55;52.22;101902.06;5075565;28;45609;-51
2021/08/31 07:44:27;;;;;;;;;26.00;22.50;;;;;20.58;52.77;101898.41;5065370;28;46041;-52
2021/08/31 07:46:53;;;;;;;;;25.75;21.50;;;;;20.59;52.35;101898.31;5066305;27;45455;-51
2021/08/31 07:49:19;;;;;;;;;23.25;22.00;;;;;20.63;52.13;101896.41;5077637;27;45224;-51
2021/08/31 07:51:45;;;;;;;;;24.50;22.00;;;;;20.62;52.26;101895.53;5079295;28;45187;-51
2021/08/31 07:54:11;;;;;;;;;26.25;23.25;;;;;20.65;52.54;101894.53;5076392;28;46561;-52
2021/08/31 07:56:37;;;;;;;;;27.50;23.50;;;;;20.68;52.36;101898.88;5076642;27;45460;-48
2021/08/31 07:59:03;;;;;;;;;30.00;25.75;;;;;20.70;52.48;101900.56;5068974;27;45421;-52
2021/08/31 08:01:30;;;;;;;;;32.00;25.25;;;;;20.73;52.21;101892.50;5086851;27;45443;-52
2021/08/31 08:03:56;;;;;;;;;27.50;24.50;;;;;20.74;52.52;101896.91;5079826;27;45325;-54
2021/08/31 08:06:21;;;;;;;;;27.75;23.75;;;;;20.75;52.43;101900.44;5086681;27;45468;-53
2021/08/31 08:08:47;;;;;;;;;28.25;25.75;;;;;20.80;52.59;101906.47;5080343;27;45470;-54
2021/08/31 08:11:12;;;;;;;;;25.50;24.00;;;;;20.84;52.67;101913.44;5069891;27;45295;-52
2021/08/31 08:13:37;;;;;;;;;22.50;22.50;;;;;20.88;52.55;101912.38;5081249;27;46092;-54
2021/08/31 08:16:03;;;;;;;;;27.25;23.50;;;;;20.92;52.48;101913.16;5081098;27;45281;-52
2021/08/31 08:18:29;;;;;;;;;26.75;22.50;;;;;20.94;52.63;101911.25;5080642;27;45182;-54
2021/08/31 08:20:54;;;;;;;;;27.50;25.25;;;;;20.98;51.90;101912.91;5080920;27;45626;-54
2021/08/31 08:23:19;;;;;;;;;26.00;23.25;;;;;21.05;51.98;101917.06;5080596;27;46305;-54
2021/08/31 08:25:45;;;;;;;;;24.50;24.00;;;;;21.09;52.11;101917.81;5079763;27;45765;-54
2021/08/31 08:28:10;;;;;;;;;28.75;24.25;;;;;21.17;51.83;101917.50;5074653;27;45232;-54
2021/08/31 08:30:35;;;;;;;;;29.50;23.50;;;;;21.22;51.82;101926.19;5071762;27;45454;-54
2021/08/31 08:33:01;;;;;;;;;23.25;21.75;;;;;21.27;52.46;101921.56;5080394;27;46211;-53
2021/08/31 08:35:26;;;;;;;;;24.00;19.00;;;;;21.29;51.87;101919.66;5085350;27;45335;-53
2021/08/31 08:37:52;;;;;;;;;20.75;20.75;;;;;21.37;51.71;101919.34;5076753;27;45361;-53
2021/08/31 08:40:17;;;;;;;;;24.25;19.00;;;;;21.42;51.66;101925.38;5071976;27;45292;-52
2021/08/31 08:42:43;;;;;;;;;27.00;18.50;;;;;21.47;52.00;101927.88;5081377;27;46480;-54
2021/08/31 08:45:10;;;;;;;;;21.75;21.50;;;;;21.52;51.47;101931.22;5082697;27;45410;-54
2021/08/31 08:47:35;;;;;;;;;24.25;20.25;;;;;21.55;51.49;101923.09;5081915;27;45465;-54
2021/08/31 08:50:02;;;;;;;;;22.00;20.50;;;;;21.59;51.83;101928.25;5081814;27;45331;-54
2021/08/31 08:52:28;;;;;;;;;27.00;20.50;;;;;21.65;51.61;101937.84;5081680;27;45300;-52
2021/08/31 08:54:53;;;;;;;;;22.50;21.75;;;;;21.69;51.71;101936.78;5082217;27;45239;-54
2021/08/31 08:57:20;;;;;;;;;27.25;20.00;;;;;21.73;51.36;101938.38;5076117;27;46583;-53
2021/08/31 08:59:49;;;;;;;;;21.75;18.75;;;;;21.80;51.29;101941.69;5072194;28;45245;-54
2021/08/31 09:02:36;;;;;;;;;18.00;17.50;;;;;21.84;51.13;101935.25;5081396;27;45414;-55
2021/08/31 09:05:03;;;;;;;;;16.75;15.00;;;;;21.92;51.35;101942.94;5081527;27;45301;-54
2021/08/31 09:07:29;;;;;;;;;19.25;18.00;;;;;21.99;51.02;101940.88;5077243;28;45408;-52
2021/08/31 09:10:20;;;;;;;;;21.25;19.00;;;;;22.05;51.25;101941.47;5076831;27;45174;-53
2021/08/31 09:12:49;;;;;;;;;19.75;19.00;;;;;22.13;50.93;101937.59;5077021;27;46261;-53
2021/08/31 09:15:21;;;;;;;;;20.00;19.00;;;;;22.20;50.99;101945.28;5081195;27;45331;-53
2021/08/31 09:18:05;;;;;;;;;24.75;22.00;;;;;22.28;50.76;101952.97;5067999;27;45419;-54
2021/08/31 09:20:53;;;;;;;;;22.75;17.50;;;;;22.34;50.59;101935.75;5081638;27;45252;-56
2021/08/31 09:23:22;;;;;;;;;26.25;22.25;;;;;22.42;50.90;101948.88;5079948;27;46508;-53
2021/08/31 09:25:51;;;;;;;;;22.50;19.25;;;;;22.47;50.73;101947.69;5081617;28;45367;-52
2021/08/31 09:28:29;;;;;;;;;22.00;20.00;;;;;22.50;50.52;101944.91;5081422;27;45318;-53
2021/08/31 09:31:01;;;;;;;;;21.25;18.25;;;;;22.57;50.41;101945.47;5068918;27;45466;-53
2021/08/31 09:33:29;;;;;;;;;18.50;13.00;;;;;22.61;50.19;101938.16;5082773;27;46859;-54
2021/08/31 09:36:04;;;;;;;;;18.75;18.75;;;;;22.66;50.45;101938.81;5072108;27;45210;-54
2021/08/31 09:38:52;;;;;;;;;18.75;17.50;;;;;22.70;50.35;101940.41;5068707;27;45490;-54
2021/08/31 09:41:41;;;;;;;;;17.50;16.50;;;;;22.75;50.37;101940.22;5068484;27;45365;-54
2021/08/31 09:44:18;;;;;;;;;18.50;18.25;;;;;22.81;50.51;101942.59;5080855;27;46316;-54
2021/08/31 09:46:48;;;;;;;;;19.50;18.50;;;;;22.83;50.35;101938.03;5081092;28;45433;-53
2021/08/31 09:49:25;;;;;;;;;23.25;21.75;;;;;22.89;50.39;101937.72;5080958;28;45381;-53
2021/08/31 09:51:57;;;;;;;;;18.00;16.75;;;;;22.96;50.07;101944.53;5080417;28;45405;-54
2021/08/31 09:54:23;;;;;;;;;24.00;20.50;;;;;23.03;50.15;101942.44;5081286;28;45374;-53
2021/08/31 09:56:48;;;;;;;;;20.00;18.50;;;;;23.09;49.93;101942.13;5079556;27;45554;-55
2021/08/31 09:59:14;;;;;;;;;23.50;21.75;;;;;23.16;49.89;101940.09;5080558;27;45475;-53
2021/08/31 10:01:39;;;;;;;;;23.75;22.75;;;;;23.23;49.86;101943.31;5079486;27;45374;-53
2021/08/31 10:04:05;;;;;;;;;25.00;22.75;;;;;23.28;49.66;101942.16;5080315;27;45446;-54
2021/08/31 10:06:30;;;;;;;;;24.50;24.25;;;;;23.34;49.61;101951.72;5078381;27;45404;-55
2021/08/31 10:08:56;;;;;;;;;23.00;20.00;;;;;23.37;49.45;101947.06;5080840;27;45363;-54
2021/08/31 10:11:21;;;;;;;;;24.25;21.75;;;;;23.46;49.40;101953.78;5079511;27;45509;-53
2021/08/31 10:13:47;;;;;;;;;20.25;20.25;;;;;23.53;49.47;101955.22;5080183;27;45228;-54
2021/08/31 10:16:13;;;;;;;;;19.25;19.25;;;;;23.61;49.57;101944.13;5079325;27;45279;-55
2021/08/31 10:18:38;;;;;;;;;22.25;21.00;;;;;23.69;49.31;101949.94;5078578;28;45463;-55
2021/08/31 10:21:08;;;;;;;;;26.25;24.25;;;;;23.78;49.18;101942.38;5078596;27;45468;-55
2021/08/31 10:23:42;;;;;;;;;32.75;28.25;;;;;23.85;49.24;101946.50;5079974;28;45484;-55
2021/08/31 10:26:24;;;;;;;;;31.50;27.50;;;;;23.95;49.48;101942.41;5079145;27;45351;-54
2021/08/31 10:28:51;;;;;;;;;28.00;24.50;;;;;24.01;49.30;101944.78;5068380;27;45246;-55
2021/08/31 10:31:30;;;;;;;;;24.00;24.00;;;;;24.07;48.89;101946.28;5078761;27;45426;-53
2021/08/31 10:33:56;;;;;;;;;26.00;24.00;;;;;24.13;49.32;101950.47;5078790;27;46558;-55
2021/08/31 10:36:35;;;;;;;;;18.75;18.50;;;;;24.16;49.04;101953.84;5085116;27;45476;-54
2021/08/31 10:39:03;;;;;;;;;19.50;19.50;;;;;24.18;48.70;101953.78;5079436;27;45382;-53
2021/08/31 10:41:45;;;;;;;;;25.50;17.75;;;;;24.26;48.86;101961.41;5069500;27;45488;-55
2021/08/31 10:44:40;;;;;;;;;18.75;17.75;;;;;24.33;48.82;101961.00;5080034;27;46171;-54
2021/08/31 10:47:14;;;;;;;;;17.00;17.00;;;;;24.40;48.49;101961.56;5079942;27;45292;-53
2021/08/31 10:50:13;;;;;;;;;22.25;18.25;;;;;24.53;48.68;101956.38;5080199;27;45351;-55
2021/08/31 10:53:09;;;;;;;;;22.50;20.00;;;;;24.68;48.54;101952.03;5066983;28;45301;-55
2021/08/31 10:55:38;;;;;;;;;20.50;17.75;;;;;24.91;48.52;101955.28;5080094;27;45642;-55
2021/08/31 10:58:08;;;;;;;;;17.75;17.75;;;;;25.13;48.55;101952.22;5078609;28;45250;-54
2021/08/31 11:00:34;;;;;;;;;19.25;19.25;;;;;25.38;48.18;101959.78;5080082;28;45396;-54
2021/08/31 11:03:01;;;;;;;;;18.75;18.50;;;;;25.61;48.60;101950.38;5080013;27;45453;-55
2021/08/31 11:05:33;;;;;;;;;20.75;16.50;;;;;25.84;47.74;101944.59;5078405;27;46082;-55
2021/08/31 11:08:01;;;;;;;;;22.75;20.75;;;;;26.04;48.19;101948.78;5079939;27;45365;-55
2021/08/31 11:10:28;;;;;;;;;19.00;18.00;;;;;26.24;47.55;101942.19;5079925;28;45330;-56